Time;durP1;ratioP1;P1;durP2;ratioP2;P2;SDS_P1;SDS_P2;PMS_P1;PMS_P2;Temp;Humidity;BMP_temperature;BMP_pressure;BME280_temperature;BME280_humidity;BME280_pressure;Samples;Min_cycle;Max_cycle;Signal;HPM_P1;HPM_P2
2023/06/14 00:02:15;;;;;;;4.38;2.40;;;16.30;65.30;;;;;;5098779;28;20040;-84
2023/06/14 00:04:41;;;;;;;2.42;2.22;;;16.30;65.60;;;;;;5095376;28;20036;-84
2023/06/14 00:07:08;;;;;;;5.60;2.50;;;16.20;65.60;;;;;;5101284;28;20051;-84
2023/06/14 00:09:34;;;;;;;6.85;2.60;;;16.20;65.90;;;;;;5098341;28;20581;-84
2023/06/14 00:12:00;;;;;;;2.97;2.08;;;16.40;66.30;;;;;;5088677;28;20064;-83
2023/06/14 00:14:25;;;;;;;3.88;2.00;;;16.10;66.30;;;;;;5087164;28;20064;-83
2023/06/14 00:16:52;;;;;;;5.40;2.60;;;16.00;66.40;;;;;;5101347;28;20471;-84
2023/06/14 00:19:19;;;;;;;3.40;1.80;;;16.00;66.70;;;;;;5101008;28;20177;-83
2023/06/14 00:21:45;;;;;;;5.15;2.30;;;16.20;67.10;;;;;;5094290;28;20724;-83
2023/06/14 00:24:11;;;;;;;3.35;1.98;;;15.80;67.10;;;;;;5096711;28;20056;-83
2023/06/14 00:26:36;;;;;;;2.72;2.35;;;15.80;67.50;;;;;;5079035;28;20314;-84
2023/06/14 00:29:02;;;;;;;4.55;2.30;;;15.80;67.60;;;;;;5093317;28;20040;-83
2023/06/14 00:31:28;;;;;;;3.20;2.13;;;15.80;67.90;;;;;;5091390;28;20475;-84
2023/06/14 00:33:54;;;;;;;3.20;2.17;;;15.70;68.10;;;;;;5095652;28;20052;-83
2023/06/14 00:36:19;;;;;;;4.30;2.10;;;15.70;68.50;;;;;;5093420;28;20032;-84
2023/06/14 00:38:45;;;;;;;2.92;2.10;;;15.60;68.70;;;;;;5096939;28;20454;-84
2023/06/14 00:41:11;;;;;;;4.47;2.25;;;16.10;69.10;;;;;;5092289;28;20044;-84
2023/06/14 00:43:36;;;;;;;4.45;2.30;;;15.60;69.10;;;;;;5076103;28;20055;-83
2023/06/14 00:46:03;;;;;;;3.05;2.35;;;15.60;69.40;;;;;;5093176;28;20063;-83
2023/06/14 00:48:30;;;;;;;4.35;2.33;;;15.90;69.90;;;;;;5096723;28;20108;-83
2023/06/14 00:50:57;;;;;;;7.18;2.30;;;15.60;70.00;;;;;;5090230;28;20051;-82
2023/06/14 00:53:25;;;;;;;3.85;2.20;;;15.50;70.20;;;;;;5085352;28;20040;-84
2023/06/14 00:55:50;;;;;;;2.92;1.98;;;15.50;70.40;;;;;;5077496;28;20157;-83
2023/06/14 00:58:16;;;;;;;4.55;2.28;;;15.40;70.70;;;;;;5091575;28;20138;-83
2023/06/14 01:00:42;;;;;;;4.07;2.55;;;15.40;71.00;;;;;;5095603;28;20044;-83
2023/06/14 01:03:12;;;;;;;2.58;2.13;;;15.40;71.30;;;;;;5075785;28;20048;-83
2023/06/14 01:05:38;;;;;;;2.55;2.10;;;15.40;71.60;;;;;;5095885;28;20048;-83
2023/06/14 01:08:22;;;;;;;3.17;1.80;;;15.40;71.90;;;;;;5091498;28;20044;-84
2023/06/14 01:10:51;;;;;;;7.18;2.38;;;15.30;73.10;;;;;;5095093;28;20059;-84
2023/06/14 01:13:27;;;;;;;4.95;2.22;;;15.30;72.60;;;;;;5096780;28;20051;-84
2023/06/14 01:15:55;;;;;;;6.82;2.35;;;15.30;73.30;;;;;;5094078;28;20036;-84
2023/06/14 01:18:24;;;;;;;4.22;2.13;;;15.20;73.40;;;;;;5081664;28;20044;-84
2023/06/14 01:20:50;;;;;;;3.53;2.08;;;15.20;73.70;;;;;;5090796;28;20052;-83
2023/06/14 01:23:20;;;;;;;3.85;2.08;;;15.10;74.30;;;;;;5098121;28;20062;-83
2023/06/14 01:25:46;;;;;;;4.82;2.22;;;15.10;74.70;;;;;;5096072;28;20100;-82
2023/06/14 01:28:16;;;;;;;4.25;2.08;;;15.10;75.00;;;;;;5092924;28;20117;-83
2023/06/14 01:30:47;;;;;;;3.30;2.15;;;15.60;75.90;;;;;;5090847;28;20051;-84
2023/06/14 01:33:15;;;;;;;2.65;2.10;;;15.00;76.30;;;;;;5090881;28;20493;-82
2023/06/14 01:35:45;;;;;;;2.78;2.05;;;14.90;76.50;;;;;;5089912;28;20467;-83
2023/06/14 01:38:13;;;;;;;5.50;2.25;;;14.90;77.30;;;;;;5091238;28;20044;-84
2023/06/14 01:40:39;;;;;;;8.63;2.45;;;14.90;77.80;;;;;;5073467;28;20036;-84
2023/06/14 01:43:06;;;;;;;2.58;1.83;;;14.90;78.10;;;;;;5093173;28;20055;-83
2023/06/14 01:45:35;;;;;;;4.70;2.17;;;14.80;78.60;;;;;;5092987;28;20377;-83
2023/06/14 01:48:01;;;;;;;4.03;1.90;;;15.20;79.60;;;;;;5093916;28;20144;-82
2023/06/14 01:50:31;;;;;;;2.72;2.00;;;14.80;79.70;;;;;;5096220;28;20048;-83
2023/06/14 01:52:56;;;;;;;7.50;2.10;;;14.80;80.30;;;;;;5098810;28;20066;-83
2023/06/14 01:55:22;;;;;;;4.18;2.08;;;14.70;80.50;;;;;;5098826;28;20040;-83
2023/06/14 01:57:48;;;;;;;4.35;2.25;;;14.90;81.40;;;;;;5096497;28;20036;-84
2023/06/14 02:00:15;;;;;;;3.78;2.25;;;14.80;81.90;;;;;;5097118;28;20127;-83
2023/06/14 02:02:41;;;;;;;4.38;2.05;;;14.60;82.30;;;;;;5100175;28;20098;-83
2023/06/14 02:05:07;;;;;;;2.55;1.80;;;14.80;83.10;;;;;;5093776;28;20364;-83
2023/06/14 02:07:33;;;;;;;3.17;2.00;;;15.20;83.80;;;;;;5093193;28;20075;-83
2023/06/14 02:09:59;;;;;;;4.18;2.22;;;14.60;84.10;;;;;;5093784;28;20407;-84
2023/06/14 02:12:25;;;;;;;2.72;2.00;;;14.60;84.60;;;;;;5101344;28;20044;-84
2023/06/14 02:14:51;;;;;;;3.22;2.08;;;14.50;85.00;;;;;;5089243;28;20345;-83
2023/06/14 02:17:17;;;;;;;4.35;2.30;;;14.50;85.30;;;;;;5091845;28;20040;-82
2023/06/14 02:19:43;;;;;;;3.30;1.85;;;14.50;86.20;;;;;;5096244;28;20040;-83
2023/06/14 02:22:08;;;;;;;4.50;1.90;;;14.40;87.00;;;;;;5096724;28;20028;-82
2023/06/14 02:24:35;;;;;;;3.47;2.20;;;14.50;87.60;;;;;;5077250;28;20036;-83
2023/06/14 02:27:01;;;;;;;3.45;1.90;;;14.40;88.10;;;;;;5097097;28;20488;-83
2023/06/14 02:29:27;;;;;;;5.25;2.38;;;14.40;88.70;;;;;;5097290;28;20113;-83
2023/06/14 02:31:52;;;;;;;2.28;1.83;;;14.30;89.40;;;;;;5091157;28;20515;-83
2023/06/14 02:34:19;;;;;;;4.00;1.88;;;14.30;90.00;;;;;;5080040;28;20127;-84
2023/06/14 02:36:45;;;;;;;4.07;2.22;;;14.30;90.30;;;;;;5076544;28;20052;-83
2023/06/14 02:39:12;;;;;;;2.75;1.95;;;14.30;90.90;;;;;;5092691;28;20106;-83
2023/06/14 02:41:38;;;;;;;3.72;2.22;;;14.20;91.20;;;;;;5075944;28;20230;-84
2023/06/14 02:44:03;;;;;;;2.95;2.20;;;14.20;91.30;;;;;;5098857;28;20511;-83
2023/06/14 02:46:29;;;;;;;4.55;2.28;;;14.20;91.70;;;;;;5100938;28;20040;-82
2023/06/14 02:48:56;;;;;;;7.43;2.20;;;14.10;91.90;;;;;;5082049;28;20166;-83
2023/06/14 02:51:22;;;;;;;3.30;2.22;;;14.60;92.50;;;;;;5104442;28;20125;-84
2023/06/14 02:53:47;;;;;;;6.88;2.40;;;14.10;92.50;;;;;;5097296;28;20087;-82
2023/06/14 02:56:13;;;;;;;3.92;2.22;;;14.10;92.80;;;;;;5097823;28;20043;-83
2023/06/14 02:58:39;;;;;;;2.88;2.35;;;14.10;93.10;;;;;;5075756;28;20047;-83
2023/06/14 03:01:07;;;;;;;3.33;2.13;;;14.10;93.60;;;;;;5097029;28;20043;-82
2023/06/14 03:03:33;;;;;;;4.32;2.30;;;14.00;93.70;;;;;;5096452;28;20113;-82
2023/06/14 03:06:04;;;;;;;4.18;2.20;;;14.00;93.90;;;;;;5096914;28;20048;-83
2023/06/14 03:08:30;;;;;;;3.67;2.22;;;13.90;94.50;;;;;;5095015;28;20123;-82
2023/06/14 03:10:57;;;;;;;5.28;2.10;;;13.90;94.60;;;;;;5078633;28;20069;-82
2023/06/14 03:13:23;;;;;;;2.80;2.20;;;13.90;94.90;;;;;;5097572;28;20058;-83
2023/06/14 03:15:51;;;;;;;4.50;2.22;;;13.90;95.20;;;;;;5093893;28;20071;-84
2023/06/14 03:18:17;;;;;;;4.20;2.15;;;13.90;95.50;;;;;;5079325;28;20038;-83
2023/06/14 03:20:45;;;;;;;3.78;2.35;;;13.90;95.90;;;;;;5093423;28;20122;-83
2023/06/14 03:23:12;;;;;;;6.20;2.22;;;13.90;96.10;;;;;;5095982;28;20040;-84
2023/06/14 03:25:38;;;;;;;6.18;2.58;;;13.90;96.70;;;;;;5094206;28;20048;-83
2023/06/14 03:28:05;;;;;;;8.55;2.28;;;13.90;96.70;;;;;;5093259;28;20044;-83
2023/06/14 03:30:31;;;;;;;4.75;2.30;;;13.80;97.50;;;;;;5086790;28;20237;-83
2023/06/14 03:33:00;;;;;;;2.45;2.17;;;14.00;97.60;;;;;;5078010;28;20044;-82
2023/06/14 03:35:26;;;;;;;2.50;2.20;;;13.80;97.60;;;;;;5093388;28;20082;-83
2023/06/14 03:37:52;;;;;;;3.55;2.50;;;13.90;97.80;;;;;;5091185;28;20084;-82
2023/06/14 03:40:19;;;;;;;3.10;2.13;;;13.90;98.00;;;;;;5072394;28;20136;-83
2023/06/14 03:42:45;;;;;;;5.88;2.38;;;14.10;98.70;;;;;;5094241;28;20810;-83
2023/06/14 03:45:11;;;;;;;3.15;2.85;;;13.80;98.50;;;;;;5076726;28;20079;-84
2023/06/14 03:47:36;;;;;;;4.43;2.47;;;14.00;98.70;;;;;;5084365;28;20052;-83
2023/06/14 03:50:03;;;;;;;4.68;2.58;;;13.90;99.20;;;;;;5086068;28;20161;-83
2023/06/14 03:52:29;;;;;;;4.72;2.38;;;13.90;99.30;;;;;;5092135;28;20047;-84
2023/06/14 03:54:55;;;;;;;4.10;2.40;;;13.90;99.60;;;;;;5087744;28;20115;-82
2023/06/14 03:57:22;;;;;;;3.45;2.55;;;13.90;99.90;;;;;;5084146;28;20040;-83
2023/06/14 03:59:47;;;;;;;4.10;2.53;;;13.90;99.90;;;;;;5092146;28;20056;-82
2023/06/14 04:02:16;;;;;;;3.95;2.47;;;13.90;99.90;;;;;;5092522;28;20102;-82
2023/06/14 04:04:44;;;;;;;3.88;2.42;;;13.90;99.90;;;;;;5095184;28;20036;-84
2023/06/14 04:07:13;;;;;;;3.13;2.22;;;13.90;99.90;;;;;;5098547;28;20096;-83
2023/06/14 04:09:39;;;;;;;2.80;2.35;;;13.90;99.90;;;;;;5093168;28;20119;-82
2023/06/14 04:12:06;;;;;;;4.65;2.70;;;14.00;99.90;;;;;;5085108;28;20123;-83
2023/06/14 04:14:32;;;;;;;4.28;2.28;;;14.00;99.90;;;;;;5079486;28;20056;-83
2023/06/14 04:16:58;;;;;;;4.60;2.42;;;14.00;99.90;;;;;;5088422;28;20807;-84
2023/06/14 04:19:24;;;;;;;4.18;2.65;;;14.00;99.90;;;;;;5091023;28;20130;-84
2023/06/14 04:21:50;;;;;;;2.53;2.20;;;14.00;99.90;;;;;;5089008;28;20044;-84
2023/06/14 04:24:16;;;;;;;2.88;2.58;;;14.00;99.90;;;;;;5094500;28;20032;-83
2023/06/14 04:26:44;;;;;;;4.95;2.40;;;14.10;99.90;;;;;;5096228;28;20109;-83
2023/06/14 04:29:14;;;;;;;3.95;2.53;;;14.10;99.90;;;;;;5096827;28;20225;-83
2023/06/14 04:31:40;;;;;;;4.38;2.80;;;14.10;99.90;;;;;;5094398;28;20171;-83
2023/06/14 04:34:06;;;;;;;8.63;2.97;;;14.10;99.90;;;;;;5093868;28;20441;-83
2023/06/14 04:36:34;;;;;;;6.35;2.85;;;14.20;99.90;;;;;;5091637;28;20040;-84
2023/06/14 04:39:03;;;;;;;3.72;3.22;;;14.20;99.90;;;;;;5096398;28;20055;-84
2023/06/14 04:41:30;;;;;;;5.63;2.90;;;14.40;99.90;;;;;;5110503;28;20058;-83
2023/06/14 04:44:01;;;;;;;4.72;2.65;;;14.60;99.90;;;;;;5077059;28;20077;-83
2023/06/14 04:46:28;;;;;;;5.75;2.90;;;14.30;99.90;;;;;;5096201;28;20637;-83
2023/06/14 04:48:54;;;;;;;4.72;2.95;;;14.30;99.90;;;;;;5071564;28;20121;-82
2023/06/14 04:51:22;;;;;;;4.55;3.00;;;14.40;99.90;;;;;;5091719;28;20130;-81
2023/06/14 04:53:49;;;;;;;3.72;2.78;;;14.40;99.90;;;;;;5092630;28;20079;-84
2023/06/14 04:56:15;;;;;;;5.05;2.80;;;14.40;99.90;;;;;;5088000;28;20052;-83
2023/06/14 04:58:40;;;;;;;3.47;2.80;;;14.50;99.90;;;;;;5089273;28;20457;-85
2023/06/14 05:01:09;;;;;;;5.07;3.17;;;14.60;99.90;;;;;;5087859;28;20289;-84
2023/06/14 05:03:34;;;;;;;7.15;3.10;;;14.60;99.90;;;;;;5085592;28;20517;-84
2023/06/14 05:06:00;;;;;;;5.40;3.33;;;15.00;99.90;;;;;;5070965;28;20040;-82
2023/06/14 05:08:26;;;;;;;5.70;3.42;;;14.80;99.90;;;;;;5090078;28;20101;-83
2023/06/14 05:10:52;;;;;;;5.80;3.30;;;14.70;99.90;;;;;;5087061;28;20036;-83
2023/06/14 05:13:18;;;;;;;4.68;3.08;;;14.80;99.90;;;;;;5059959;28;20078;-82
2023/06/14 05:15:44;;;;;;;4.45;3.10;;;15.20;99.90;;;;;;5082182;28;20231;-83
2023/06/14 05:18:10;;;;;;;5.22;3.90;;;15.00;99.90;;;;;;5088089;28;20203;-84
2023/06/14 05:20:37;;;;;;;5.20;3.28;;;15.10;99.90;;;;;;5087873;28;20066;-84
2023/06/14 05:23:03;;;;;;;4.65;2.95;;;15.30;99.90;;;;;;5086759;28;20055;-84
2023/06/14 05:25:28;;;;;;;5.05;3.13;;;15.40;99.90;;;;;;5070676;28;20130;-84
2023/06/14 05:27:54;;;;;;;3.40;3.10;;;15.50;99.90;;;;;;5071486;28;20060;-84
2023/06/14 05:30:21;;;;;;;4.03;3.20;;;16.00;99.90;;;;;;5071074;28;20124;-83
2023/06/14 05:32:46;;;;;;;4.45;2.90;;;17.10;98.80;;;;;;5088833;28;20105;-85
2023/06/14 05:35:12;;;;;;;3.25;2.80;;;18.40;95.70;;;;;;5088515;28;20044;-85
2023/06/14 05:37:38;;;;;;;5.70;2.97;;;19.70;92.10;;;;;;5088267;28;20510;-87
2023/06/14 05:40:08;;;;;;;4.50;3.20;;;20.40;89.10;;;;;;5068598;28;20052;-83
2023/06/14 05:42:34;;;;;;;4.22;3.03;;;21.00;83.40;;;;;;5086051;28;20422;-84
2023/06/14 05:45:00;;;;;;;4.93;2.88;;;21.60;80.00;;;;;;5070570;28;20044;-83
2023/06/14 05:47:27;;;;;;;3.03;2.78;;;22.00;76.20;;;;;;5071240;28;20105;-86
2023/06/14 05:49:53;;;;;;;3.50;2.55;;;22.20;74.20;;;;;;5086949;28;20127;-82
2023/06/14 05:52:18;;;;;;;4.00;2.90;;;22.30;72.80;;;;;;5091629;28;20512;-81
2023/06/14 05:54:45;;;;;;;6.10;2.90;;;22.50;71.80;;;;;;5087978;28;20064;-89
2023/06/14 05:57:11;;;;;;;2.65;2.45;;;22.70;70.50;;;;;;5087016;28;20051;-88
2023/06/14 05:59:37;;;;;;;2.97;2.67;;;22.90;69.30;;;;;;5071022;28;20103;-86
2023/06/14 06:02:03;;;;;;;4.97;2.58;;;23.30;67.80;;;;;;5068553;28;20428;-88
2023/06/14 06:04:28;;;;;;;4.93;2.50;;;23.60;66.90;;;;;;5068785;28;20082;-89
2023/06/14 06:06:54;;;;;;;3.35;2.70;;;23.90;66.10;;;;;;5069289;28;20800;-89
2023/06/14 06:09:20;;;;;;;4.57;2.80;;;23.80;65.10;;;;;;5071314;28;20036;-89
2023/06/14 06:11:45;;;;;;;3.00;2.38;;;24.00;64.50;;;;;;5090352;28;20052;-88
2023/06/14 06:14:11;;;;;;;4.70;2.67;;;24.30;63.60;;;;;;5072936;28;20039;-87
2023/06/14 06:16:36;;;;;;;3.28;2.50;;;24.20;62.80;;;;;;5074421;28;20048;-88
2023/06/14 06:19:02;;;;;;;4.03;2.50;;;24.20;62.50;;;;;;5091593;28;20044;-88
2023/06/14 06:21:28;;;;;;;3.72;2.70;;;24.50;61.60;;;;;;5092932;28;20040;-88
2023/06/14 06:23:54;;;;;;;4.70;2.42;;;24.50;60.70;;;;;;5091828;28;20097;-87
2023/06/14 06:26:22;;;;;;;4.45;2.60;;;25.10;60.00;;;;;;5093792;28;20123;-88
2023/06/14 06:28:48;;;;;;;3.80;2.45;;;25.40;59.30;;;;;;5090809;28;20055;-89
2023/06/14 06:31:13;;;;;;;3.67;2.40;;;25.30;58.80;;;;;;5091625;28;20040;-85
2023/06/14 06:33:42;;;;;;;4.78;2.65;;;25.30;58.40;;;;;;5090413;28;20052;-84
2023/06/14 06:36:07;;;;;;;7.95;2.92;;;25.10;57.80;;;;;;5088301;28;20056;-85
2023/06/14 06:38:33;;;;;;;2.40;2.20;;;25.20;57.60;;;;;;5083464;28;20052;-86
2023/06/14 06:40:58;;;;;;;3.33;2.10;;;25.00;57.70;;;;;;5088195;28;20063;-86
2023/06/14 06:43:24;;;;;;;3.10;2.22;;;24.00;58.70;;;;;;5087938;28;20042;-86
2023/06/14 06:45:50;;;;;;;3.55;2.60;;;23.20;60.40;;;;;;5070001;28;20546;-86
2023/06/14 06:48:15;;;;;;;5.40;2.50;;;22.70;61.60;;;;;;5085231;28;20778;-88
2023/06/14 06:50:41;;;;;;;4.38;2.50;;;22.10;62.90;;;;;;5090217;28;20131;-87
2023/06/14 06:53:07;;;;;;;3.35;2.40;;;21.70;63.60;;;;;;5090602;28;20720;-86
2023/06/14 06:55:32;;;;;;;3.08;2.30;;;21.40;64.00;;;;;;5090302;28;20109;-85
2023/06/14 06:57:59;;;;;;;5.72;2.50;;;21.20;64.50;;;;;;5089143;28;20044;-87
2023/06/14 07:00:25;;;;;;;4.03;2.50;;;21.00;64.90;;;;;;5072090;28;20177;-86
2023/06/14 07:02:52;;;;;;;5.68;2.38;;;21.30;65.40;;;;;;5089650;28;20123;-87
2023/06/14 07:05:20;;;;;;;4.22;2.25;;;21.00;65.00;;;;;;5089746;28;20051;-87
2023/06/14 07:07:45;;;;;;;2.92;1.92;;;21.00;64.80;;;;;;5072061;28;20395;-88
2023/06/14 07:10:13;;;;;;;4.18;2.90;;;21.20;65.30;;;;;;5087210;28;20036;-84
2023/06/14 07:12:39;;;;;;;4.03;2.60;;;21.30;64.90;;;;;;5070843;28;20547;-82
2023/06/14 07:15:08;;;;;;;6.20;2.33;;;21.30;64.20;;;;;;5069615;28;20511;-82
2023/06/14 07:17:34;;;;;;;6.40;2.30;;;21.30;64.40;;;;;;5052259;28;20111;-84
2023/06/14 07:20:05;;;;;;;3.90;2.42;;;21.30;63.80;;;;;;5068542;28;20064;-85
2023/06/14 07:22:30;;;;;;;3.05;2.15;;;21.30;63.60;;;;;;5051720;28;20518;-83
2023/06/14 07:24:56;;;;;;;4.43;2.65;;;21.40;63.40;;;;;;5068851;28;20046;-82
2023/06/14 07:27:22;;;;;;;3.75;2.08;;;21.40;63.20;;;;;;5053630;28;20060;-82
2023/06/14 07:29:47;;;;;;;3.78;2.28;;;21.50;63.30;;;;;;5088691;28;20048;-81
2023/06/14 07:32:13;;;;;;;10.30;2.17;;;21.60;63.30;;;;;;5089322;28;20050;-81
2023/06/14 07:34:38;;;;;;;3.60;2.60;;;21.70;63.30;;;;;;5088520;28;20044;-82
2023/06/14 07:37:04;;;;;;;3.35;2.00;;;21.70;63.50;;;;;;5089230;28;20130;-82
2023/06/14 07:39:29;;;;;;;3.83;2.20;;;21.80;63.60;;;;;;5087823;28;20044;-82
2023/06/14 07:41:55;;;;;;;5.75;2.30;;;21.90;63.00;;;;;;5089104;28;20051;-87
2023/06/14 07:44:21;;;;;;;2.97;2.20;;;21.90;62.20;;;;;;5091000;28;20399;-84
2023/06/14 07:46:49;;;;;;;3.83;2.15;;;22.20;62.30;;;;;;5089973;28;20044;-83
2023/06/14 07:49:14;;;;;;;2.20;2.00;;;22.00;61.80;;;;;;5089706;28;20052;-82
2023/06/14 07:51:40;;;;;;;3.65;2.00;;;21.90;61.50;;;;;;5088734;28;20674;-82
2023/06/14 07:54:07;;;;;;;5.35;2.15;;;21.90;61.50;;;;;;5088473;28;20048;-83
2023/06/14 07:56:33;;;;;;;4.30;2.40;;;21.90;62.10;;;;;;5090254;28;20048;-83
2023/06/14 07:58:58;;;;;;;2.95;2.55;;;22.20;62.10;;;;;;5088396;28;20530;-84
2023/06/14 08:01:25;;;;;;;3.50;2.22;;;22.40;61.70;;;;;;5071804;28;20044;-85
2023/06/14 08:03:51;;;;;;;3.65;2.15;;;22.50;61.10;;;;;;5086272;28;20095;-84
2023/06/14 08:06:16;;;;;;;3.00;2.20;;;22.60;61.20;;;;;;5068085;28;20123;-85
2023/06/14 08:08:42;;;;;;;3.90;2.08;;;22.60;60.70;;;;;;5073162;28;20036;-85
2023/06/14 08:11:08;;;;;;;2.38;1.92;;;22.50;60.10;;;;;;5077088;28;20151;-85
2023/06/14 08:13:33;;;;;;;4.35;1.95;;;22.60;59.90;;;;;;5085070;28;20039;-84
2023/06/14 08:16:01;;;;;;;5.90;2.00;;;22.60;59.60;;;;;;5087928;28;20080;-82
2023/06/14 08:18:26;;;;;;;3.53;1.98;;;22.50;59.20;;;;;;5086966;28;20105;-80
2023/06/14 08:20:54;;;;;;;4.32;1.83;;;22.60;58.40;;;;;;5070760;28;20047;-81
2023/06/14 08:23:21;;;;;;;3.35;1.77;;;22.60;58.10;;;;;;5088080;28;20040;-82
2023/06/14 08:25:46;;;;;;;3.80;1.67;;;22.80;58.70;;;;;;5088065;28;20079;-82
2023/06/14 08:28:12;;;;;;;4.57;1.67;;;22.70;57.40;;;;;;5086741;28;20067;-81
2023/06/14 08:30:37;;;;;;;4.93;2.08;;;22.70;57.00;;;;;;5068051;28;20041;-84
2023/06/14 08:33:03;;;;;;;2.95;1.75;;;22.80;56.60;;;;;;5049320;28;20040;-81
2023/06/14 08:35:29;;;;;;;2.92;1.50;;;22.90;56.80;;;;;;5065655;28;20446;-82
2023/06/14 08:37:55;;;;;;;4.15;1.60;;;23.00;56.80;;;;;;5066068;28;20143;-83
2023/06/14 08:40:22;;;;;;;3.85;2.30;;;23.10;57.00;;;;;;5083592;28;20507;-81
2023/06/14 08:42:52;;;;;;;1.80;1.70;;;23.30;56.60;;;;;;5087980;28;20048;-83
2023/06/14 08:45:20;;;;;;;3.00;1.80;;;23.20;55.80;;;;;;5088784;28;20036;-82
2023/06/14 08:47:51;;;;;;;3.42;2.00;;;23.50;55.80;;;;;;5070969;28;20590;-84
2023/06/14 08:50:21;;;;;;;1.88;1.70;;;23.20;55.60;;;;;;5087323;28;20052;-86
2023/06/14 08:52:52;;;;;;;2.88;1.70;;;23.30;55.50;;;;;;5087158;28;20503;-84
2023/06/14 08:55:19;;;;;;;2.37;1.70;;;23.40;55.40;;;;;;5087736;28;20044;-84
2023/06/14 08:57:46;;;;;;;1.67;1.52;;;23.10;55.10;;;;;;5088465;28;20040;-84
2023/06/14 09:00:13;;;;;;;2.05;1.90;;;23.10;54.90;;;;;;5087514;28;20582;-83
2023/06/14 09:02:43;;;;;;;3.10;1.80;;;23.10;55.00;;;;;;5087803;28;20046;-85
2023/06/14 09:05:13;;;;;;;2.00;1.80;;;23.20;55.60;;;;;;5088652;28;20047;-82
2023/06/14 09:07:40;;;;;;;2.15;1.50;;;23.30;55.20;;;;;;5086971;28;20048;-83
2023/06/14 09:10:10;;;;;;;3.83;2.10;;;23.50;55.30;;;;;;5087143;28;20040;-82
2023/06/14 09:12:36;;;;;;;3.35;2.00;;;23.50;54.50;;;;;;5087057;28;20668;-82
2023/06/14 09:15:08;;;;;;;3.45;1.80;;;23.60;54.60;;;;;;5086249;28;20040;-83
2023/06/14 09:17:37;;;;;;;3.00;1.50;;;23.60;54.30;;;;;;5086860;28;20119;-83
2023/06/14 09:20:08;;;;;;;3.03;2.00;;;23.60;54.20;;;;;;5086432;28;20097;-82
2023/06/14 09:22:34;;;;;;;2.95;2.17;;;23.60;54.30;;;;;;5086556;28;20040;-83
2023/06/14 09:25:00;;;;;;;2.85;1.73;;;23.60;54.00;;;;;;5087265;28;20042;-83
2023/06/14 09:27:26;;;;;;;3.15;1.50;;;23.60;53.80;;;;;;5086732;28;20050;-83
2023/06/14 09:29:53;;;;;;;2.67;1.45;;;23.50;53.70;;;;;;5069572;28;20055;-83
2023/06/14 09:32:18;;;;;;;2.47;1.70;;;23.50;53.80;;;;;;5069609;28;20040;-82
2023/06/14 09:34:45;;;;;;;6.70;1.50;;;23.70;53.60;;;;;;5070363;28;20047;-88
2023/06/14 09:37:11;;;;;;;6.72;2.00;;;23.70;53.60;;;;;;5089001;28;20052;-87
2023/06/14 09:39:50;;;;;;;2.15;1.98;;;23.80;53.20;;;;;;5086241;28;20050;-86
2023/06/14 09:42:19;;;;;;;6.00;1.73;;;23.70;52.60;;;;;;5091178;28;20044;-87
2023/06/14 09:44:48;;;;;;;2.08;1.88;;;23.70;53.00;;;;;;5087526;28;20048;-87
2023/06/14 09:47:18;;;;;;;3.13;1.88;;;23.90;52.90;;;;;;5087136;28;20468;-85
2023/06/14 09:49:44;;;;;;;4.43;1.70;;;23.90;53.10;;;;;;5087211;28;20067;-86
2023/06/14 09:52:18;;;;;;;3.50;1.60;;;24.00;52.90;;;;;;5070006;28;20044;-85
2023/06/14 09:54:46;;;;;;;5.68;1.70;;;24.20;52.80;;;;;;5090065;28;20122;-83
2023/06/14 09:57:33;;;;;;;2.25;1.70;;;24.40;53.30;;;;;;5069285;28;20052;-84
2023/06/14 10:00:03;;;;;;;4.55;1.70;;;24.40;53.80;;;;;;5086817;28;20062;-85
2023/06/14 10:02:32;;;;;;;1.63;1.38;;;24.50;52.40;;;;;;5086267;28;20086;-84
2023/06/14 10:05:11;;;;;;;3.58;1.75;;;24.50;51.90;;;;;;5069513;28;20085;-86
2023/06/14 10:07:48;;;;;;;1.63;1.40;;;24.50;51.60;;;;;;5086446;28;20044;-86
2023/06/14 10:10:14;;;;;;;1.35;1.25;;;24.50;51.50;;;;;;5086846;28;20491;-85
2023/06/14 10:12:40;;;;;;;2.00;1.50;;;24.40;52.00;;;;;;5086678;28;20403;-85
2023/06/14 10:15:10;;;;;;;4.85;1.55;;;24.20;52.00;;;;;;5087203;28;20050;-86
2023/06/14 10:18:10;;;;;;;3.45;1.50;;;24.30;51.50;;;;;;5086644;28;20783;-86
2023/06/14 10:21:00;;;;;;;1.42;1.25;;;24.20;50.70;;;;;;5071345;28;20559;-85
2023/06/14 10:23:29;;;;;;;5.47;1.98;;;24.10;50.40;;;;;;5066301;28;20074;-88
2023/06/14 10:25:56;;;;;;;5.88;1.25;;;24.20;50.90;;;;;;5066316;28;20827;-86
2023/06/14 10:28:23;;;;;;;2.58;1.20;;;24.50;50.00;;;;;;5069137;28;20101;-86
2023/06/14 10:31:08;;;;;;;2.40;1.42;;;24.30;49.60;;;;;;5064953;28;20050;-86
2023/06/14 10:33:54;;;;;;;3.45;1.55;;;24.30;49.40;;;;;;5066105;28;20040;-86
2023/06/14 10:36:34;;;;;;;3.55;1.38;;;24.20;48.60;;;;;;5061396;28;20134;-86
2023/06/14 10:39:17;;;;;;;2.22;1.40;;;24.30;49.20;;;;;;5065070;28;20508;-84
2023/06/14 10:41:52;;;;;;;2.65;1.70;;;24.30;49.30;;;;;;5083254;28;20078;-86
2023/06/14 10:44:21;;;;;;;4.90;1.35;;;24.40;49.20;;;;;;5086831;28;20039;-84
2023/06/14 10:46:54;;;;;;;2.63;1.27;;;24.40;49.10;;;;;;5086377;28;20048;-85
2023/06/14 10:49:35;;;;;;;3.38;1.50;;;24.50;49.50;;;;;;5068578;28;20052;-86
2023/06/14 10:52:03;;;;;;;3.83;1.75;;;24.70;49.20;;;;;;5087327;28;20165;-85
2023/06/14 10:54:28;;;;;;;9.40;1.58;;;24.70;49.00;;;;;;5086236;28;20131;-87
2023/06/14 10:56:55;;;;;;;2.60;1.42;;;25.10;48.80;;;;;;5085479;28;20139;-86
2023/06/14 10:59:21;;;;;;;2.20;1.38;;;24.90;48.70;;;;;;5088670;28;20048;-88
2023/06/14 11:02:03;;;;;;;3.15;1.50;;;24.90;48.80;;;;;;5073332;28;20110;-86
2023/06/14 11:04:46;;;;;;;1.50;1.30;;;24.90;48.30;;;;;;5089251;28;20048;-87
2023/06/14 11:07:30;;;;;;;2.35;1.40;;;25.00;48.10;;;;;;5088669;28;20109;-87
2023/06/14 11:10:30;;;;;;;2.47;1.30;;;24.90;48.30;;;;;;5090548;28;20044;-87
2023/06/14 11:12:56;;;;;;;2.88;1.50;;;25.10;48.10;;;;;;5072796;28;20044;-85
2023/06/14 11:15:28;;;;;;;3.03;1.40;;;25.10;47.90;;;;;;5090063;28;20407;-84
2023/06/14 11:17:56;;;;;;;1.98;1.40;;;24.90;47.60;;;;;;5088503;28;20047;-86
2023/06/14 11:20:25;;;;;;;1.85;1.23;;;25.00;48.60;;;;;;5089147;28;20040;-86
2023/06/14 11:22:52;;;;;;;2.85;1.40;;;24.90;48.70;;;;;;5089733;28;20124;-86
2023/06/14 11:25:18;;;;;;;1.98;1.40;;;24.90;48.60;;;;;;5089490;28;20083;-86
2023/06/14 11:27:44;;;;;;;2.50;1.13;;;25.10;48.30;;;;;;5090109;28;20072;-85
2023/06/14 11:30:11;;;;;;;6.43;1.80;;;25.10;48.40;;;;;;5090382;28;20059;-87
2023/06/14 11:32:37;;;;;;;2.30;1.50;;;25.10;48.50;;;;;;5084957;28;20068;-87
2023/06/14 11:35:04;;;;;;;2.85;1.35;;;25.20;48.40;;;;;;5087441;28;20499;-84
2023/06/14 11:37:32;;;;;;;1.70;1.08;;;25.20;48.20;;;;;;5072826;28;20048;-84
2023/06/14 11:39:59;;;;;;;2.85;1.48;;;25.30;48.10;;;;;;5088689;28;20140;-87
2023/06/14 11:42:27;;;;;;;1.85;1.40;;;25.20;48.00;;;;;;5082360;28;20171;-85
2023/06/14 11:44:53;;;;;;;1.85;1.30;;;25.20;48.00;;;;;;5088409;28;20056;-86
2023/06/14 11:47:19;;;;;;;2.60;1.40;;;25.30;48.40;;;;;;5088045;28;20040;-85
2023/06/14 11:49:46;;;;;;;2.53;1.15;;;25.40;49.20;;;;;;5089000;28;20125;-85
2023/06/14 11:52:12;;;;;;;1.90;1.30;;;25.20;49.10;;;;;;5089666;28;20050;-85
2023/06/14 11:54:38;;;;;;;2.78;1.20;;;25.60;48.20;;;;;;5089039;28;20490;-86
2023/06/14 11:57:04;;;;;;;5.38;1.85;;;25.60;48.40;;;;;;5088988;28;20576;-84
2023/06/14 11:59:31;;;;;;;2.10;1.40;;;25.60;47.80;;;;;;5089408;28;20128;-84
2023/06/14 12:01:57;;;;;;;3.08;1.30;;;25.60;48.00;;;;;;5087912;28;20054;-85
2023/06/14 12:04:29;;;;;;;4.93;1.55;;;25.70;47.80;;;;;;5088905;28;20518;-86
2023/06/14 12:06:57;;;;;;;1.58;1.27;;;25.50;49.00;;;;;;5089935;28;20407;-84
2023/06/14 12:09:24;;;;;;;4.28;1.50;;;25.50;48.20;;;;;;5088648;28;20047;-85
2023/06/14 12:11:49;;;;;;;1.73;1.38;;;25.60;47.90;;;;;;5089075;28;20032;-86
2023/06/14 12:14:16;;;;;;;2.17;1.33;;;25.70;48.70;;;;;;5089788;28;20105;-85
2023/06/14 12:16:42;;;;;;;2.78;1.33;;;25.80;48.00;;;;;;5070962;28;20043;-86
2023/06/14 12:19:13;;;;;;;6.30;1.40;;;25.80;47.80;;;;;;5088360;28;20066;-85
2023/06/14 12:21:43;;;;;;;2.15;1.63;;;25.80;48.00;;;;;;5090347;28;20084;-85
2023/06/14 12:24:09;;;;;;;2.40;1.27;;;25.60;47.50;;;;;;5088742;28;20044;-86
2023/06/14 12:26:38;;;;;;;3.63;1.50;;;25.50;47.50;;;;;;5090404;28;20039;-83
2023/06/14 12:29:05;;;;;;;2.55;1.33;;;25.40;47.70;;;;;;5071351;28;20139;-84
2023/06/14 12:31:31;;;;;;;1.88;1.30;;;25.30;47.60;;;;;;5088110;28;20055;-85
2023/06/14 12:33:57;;;;;;;8.88;1.70;;;25.20;47.80;;;;;;5088407;28;20058;-83
2023/06/14 12:36:22;;;;;;;3.35;1.52;;;25.20;48.50;;;;;;5087259;28;20609;-83
2023/06/14 12:38:48;;;;;;;3.70;1.40;;;25.30;48.20;;;;;;5088541;28;20105;-83
2023/06/14 12:41:14;;;;;;;4.28;1.20;;;25.40;48.20;;;;;;5088531;28;20628;-84
2023/06/14 12:43:40;;;;;;;4.00;1.52;;;25.40;48.20;;;;;;5089444;28;20042;-83
2023/06/14 12:46:06;;;;;;;1.95;1.50;;;25.60;48.00;;;;;;5088583;28;20657;-83
2023/06/14 12:48:31;;;;;;;3.35;1.58;;;25.70;48.10;;;;;;5070061;28;20504;-85
2023/06/14 12:50:57;;;;;;;4.95;1.60;;;25.70;47.80;;;;;;5069557;28;20048;-83